Portada
METAR-TAF:

METAR-TAF

Aeroports :

Gove Peninsula, Austràlia

latitud: 12-16-12S, longitud: 136-49-06E, altitud: 62 m

Observació

L'informe es va fer fa 17 minuts, a les 14:30 UTC
Vent 9 kt del Sud/Sud-Est
Temperatura 24°C
Humitat 61%
Pressió 1013 hPa
Visibilitat 10 km o més
Cel cobert a una alçada de 5300 ft

METAR: YPGV 161430Z AUTO 15009KT 9999 // OVC053 24/16 Q1013 RF00.0/000.0

Hora: 00:17 (14:47 UTC)

Pronòstic

L'informe es va fer fa 2 hores i 16 minuts, a les 12:31 UTC
Pronòstic vàlid del 16 a les 14 UTC al 17 a les 02 UTC
Vent 8 kt del Sud-Est
Visibilitat 10 km o més
Escasses núvols a una alçada de 2000 ft
A partir de les 17 a les 0000 UTC
Vent 12 kt del Sud-Est
Visibilitat 10 km o més
Núvols disperses a una alçada de 2500 ft

TAF: YPGV 161231Z 1614/1702 14008KT 9999 FEW020 FM170000 14012KT 9999 SCT025

Observacions i pronòstics meteorològics de més de 4000 aeroports (METAR i TAF).

Les estacions disponibles són els punts grocs i vermells al mapa.

Posi el ratolí al punt desitjat per veure el nom de l'estació.

Feu clic per veure les observacions i els pronòstics meteorològics.

Per canviar el mapa: feu clic els botons verds amb una creu de color negre per apropar; al botó verd amb un guió per allunyar la imatge; o en les fletxes verdes per a mapes adjacents.


METAR-TAF: